Terminal Aerodrome Forecast
Issued by NWS

Home | Current Version | Previous Version | Text Only | Print | Product List | Glossary On
Versions: 1 2 3 4 5 6 7 8 9 10 11 12 13 14 15 16 17 18 19 20
000
FTUS46 KSGX 060520
TAFONT
TAF
KONT 060520Z 0606/0712 25010KT P6SM SKC
     FM061100 25005KT 5SM BR BKN012
     FM061830 VRB04KT P6SM SCT018
     FM062000 26013KT P6SM SKC
     FM070400 26005KT P6SM SKC
     FM070900 26004KT P6SM BKN014=

USA.gov is the U.S. government's official web portal to all federal, state and local government web resources and services.